sensor_id;sensor_type;location;lat;lon;timestamp;P1;durP1;ratioP1;P2;durP2;ratioP2
47589;SDS011;33316;52.298;9.056;2022-11-15T00:02:20;4.93;;;3.40;;
47589;SDS011;33316;52.298;9.056;2022-11-15T00:04:48;3.92;;;3.15;;
47589;SDS011;33316;52.298;9.056;2022-11-15T00:07:15;6.07;;;3.80;;
47589;SDS011;33316;52.298;9.056;2022-11-15T00:09:41;5.32;;;3.67;;
47589;SDS011;33316;52.298;9.056;2022-11-15T00:12:08;4.65;;;3.35;;
47589;SDS011;33316;52.298;9.056;2022-11-15T00:14:35;4.72;;;3.22;;
47589;SDS011;33316;52.298;9.056;2022-11-15T00:17:02;4.82;;;3.45;;
47589;SDS011;33316;52.298;9.056;2022-11-15T00:19:28;4.97;;;3.72;;
47589;SDS011;33316;52.298;9.056;2022-11-15T00:21:57;6.10;;;4.30;;
47589;SDS011;33316;52.298;9.056;2022-11-15T00:24:23;6.13;;;3.83;;
47589;SDS011;33316;52.298;9.056;2022-11-15T00:26:50;7.72;;;4.18;;
47589;SDS011;33316;52.298;9.056;2022-11-15T00:29:17;6.65;;;3.83;;
47589;SDS011;33316;52.298;9.056;2022-11-15T00:31:44;5.78;;;3.53;;
47589;SDS011;33316;52.298;9.056;2022-11-15T00:34:11;4.18;;;3.22;;
47589;SDS011;33316;52.298;9.056;2022-11-15T00:36:38;5.03;;;3.80;;
47589;SDS011;33316;52.298;9.056;2022-11-15T00:39:06;5.30;;;3.53;;
47589;SDS011;33316;52.298;9.056;2022-11-15T00:41:33;5.80;;;3.90;;
47589;SDS011;33316;52.298;9.056;2022-11-15T00:44:00;5.05;;;3.83;;
47589;SDS011;33316;52.298;9.056;2022-11-15T00:46:27;5.45;;;3.70;;
47589;SDS011;33316;52.298;9.056;2022-11-15T00:48:53;5.65;;;3.75;;
47589;SDS011;33316;52.298;9.056;2022-11-15T00:51:20;5.35;;;3.47;;
47589;SDS011;33316;52.298;9.056;2022-11-15T00:53:47;5.65;;;3.47;;
47589;SDS011;33316;52.298;9.056;2022-11-15T00:56:15;4.45;;;3.30;;
47589;SDS011;33316;52.298;9.056;2022-11-15T00:58:42;5.47;;;3.92;;
47589;SDS011;33316;52.298;9.056;2022-11-15T01:01:09;4.85;;;3.60;;
47589;SDS011;33316;52.298;9.056;2022-11-15T01:03:39;5.95;;;3.60;;
47589;SDS011;33316;52.298;9.056;2022-11-15T01:06:07;4.97;;;3.67;;
47589;SDS011;33316;52.298;9.056;2022-11-15T01:08:34;5.18;;;3.40;;
47589;SDS011;33316;52.298;9.056;2022-11-15T01:11:02;6.03;;;3.83;;
47589;SDS011;33316;52.298;9.056;2022-11-15T01:13:32;6.95;;;4.50;;
47589;SDS011;33316;52.298;9.056;2022-11-15T01:16:04;5.50;;;3.72;;
47589;SDS011;33316;52.298;9.056;2022-11-15T01:18:33;6.43;;;4.53;;
47589;SDS011;33316;52.298;9.056;2022-11-15T01:20:59;6.03;;;4.13;;
47589;SDS011;33316;52.298;9.056;2022-11-15T01:23:30;6.53;;;3.90;;
47589;SDS011;33316;52.298;9.056;2022-11-15T01:25:58;5.80;;;3.80;;
47589;SDS011;33316;52.298;9.056;2022-11-15T01:28:25;6.70;;;4.22;;
47589;SDS011;33316;52.298;9.056;2022-11-15T01:30:58;7.22;;;4.70;;
47589;SDS011;33316;52.298;9.056;2022-11-15T01:33:25;4.72;;;3.22;;
47589;SDS011;33316;52.298;9.056;2022-11-15T01:35:52;5.60;;;3.88;;
47589;SDS011;33316;52.298;9.056;2022-11-15T01:38:19;5.40;;;3.97;;
47589;SDS011;33316;52.298;9.056;2022-11-15T01:40:46;6.03;;;4.47;;
47589;SDS011;33316;52.298;9.056;2022-11-15T01:43:20;5.70;;;3.95;;
47589;SDS011;33316;52.298;9.056;2022-11-15T01:45:49;7.15;;;4.22;;
47589;SDS011;33316;52.298;9.056;2022-11-15T01:48:21;6.38;;;4.03;;
47589;SDS011;33316;52.298;9.056;2022-11-15T01:53:17;7.50;;;4.38;;
47589;SDS011;33316;52.298;9.056;2022-11-15T01:55:47;7.28;;;4.53;;
47589;SDS011;33316;52.298;9.056;2022-11-15T01:58:14;7.65;;;4.50;;
47589;SDS011;33316;52.298;9.056;2022-11-15T02:00:41;7.63;;;4.93;;
47589;SDS011;33316;52.298;9.056;2022-11-15T02:03:08;10.25;;;4.88;;
47589;SDS011;33316;52.298;9.056;2022-11-15T02:05:36;10.55;;;4.85;;
47589;SDS011;33316;52.298;9.056;2022-11-15T02:08:04;8.93;;;4.55;;
47589;SDS011;33316;52.298;9.056;2022-11-15T02:10:32;7.82;;;4.90;;
47589;SDS011;33316;52.298;9.056;2022-11-15T02:12:59;7.15;;;4.65;;
47589;SDS011;33316;52.298;9.056;2022-11-15T02:15:28;6.30;;;4.55;;
47589;SDS011;33316;52.298;9.056;2022-11-15T02:18:09;8.20;;;5.40;;
47589;SDS011;33316;52.298;9.056;2022-11-15T02:20:45;8.02;;;5.13;;
47589;SDS011;33316;52.298;9.056;2022-11-15T02:23:30;7.07;;;4.45;;
47589;SDS011;33316;52.298;9.056;2022-11-15T02:26:24;6.93;;;4.30;;
47589;SDS011;33316;52.298;9.056;2022-11-15T02:29:12;7.07;;;4.15;;
47589;SDS011;33316;52.298;9.056;2022-11-15T02:31:50;7.25;;;4.47;;
47589;SDS011;33316;52.298;9.056;2022-11-15T02:34:31;8.15;;;5.32;;
47589;SDS011;33316;52.298;9.056;2022-11-15T02:37:07;6.95;;;4.95;;
47589;SDS011;33316;52.298;9.056;2022-11-15T02:39:41;7.20;;;5.38;;
47589;SDS011;33316;52.298;9.056;2022-11-15T02:42:15;8.98;;;5.88;;
47589;SDS011;33316;52.298;9.056;2022-11-15T02:45:05;7.50;;;4.63;;
47589;SDS011;33316;52.298;9.056;2022-11-15T02:47:37;6.03;;;4.57;;
47589;SDS011;33316;52.298;9.056;2022-11-15T02:50:10;6.68;;;5.20;;
47589;SDS011;33316;52.298;9.056;2022-11-15T02:52:38;9.43;;;5.22;;
47589;SDS011;33316;52.298;9.056;2022-11-15T02:57:58;8.35;;;5.18;;
47589;SDS011;33316;52.298;9.056;2022-11-15T03:00:34;6.70;;;5.18;;
47589;SDS011;33316;52.298;9.056;2022-11-15T03:03:22;8.50;;;5.25;;
47589;SDS011;33316;52.298;9.056;2022-11-15T03:06:15;10.82;;;6.28;;
47589;SDS011;33316;52.298;9.056;2022-11-15T03:08:53;8.45;;;5.65;;
47589;SDS011;33316;52.298;9.056;2022-11-15T03:11:28;9.02;;;5.70;;
47589;SDS011;33316;52.298;9.056;2022-11-15T03:13:58;7.97;;;5.13;;
47589;SDS011;33316;52.298;9.056;2022-11-15T03:19:02;9.43;;;5.32;;
47589;SDS011;33316;52.298;9.056;2022-11-15T03:21:34;9.85;;;5.22;;
47589;SDS011;33316;52.298;9.056;2022-11-15T03:24:03;10.90;;;6.63;;
47589;SDS011;33316;52.298;9.056;2022-11-15T03:26:32;10.38;;;6.50;;
47589;SDS011;33316;52.298;9.056;2022-11-15T03:29:02;10.60;;;6.03;;
47589;SDS011;33316;52.298;9.056;2022-11-15T03:31:33;12.02;;;6.68;;
47589;SDS011;33316;52.298;9.056;2022-11-15T03:34:16;10.70;;;6.57;;
47589;SDS011;33316;52.298;9.056;2022-11-15T03:36:48;9.68;;;6.72;;
47589;SDS011;33316;52.298;9.056;2022-11-15T03:39:16;9.63;;;6.80;;
47589;SDS011;33316;52.298;9.056;2022-11-15T03:41:47;9.18;;;6.45;;
47589;SDS011;33316;52.298;9.056;2022-11-15T03:44:19;8.35;;;5.95;;
47589;SDS011;33316;52.298;9.056;2022-11-15T03:46:56;10.93;;;6.90;;
47589;SDS011;33316;52.298;9.056;2022-11-15T03:49:29;10.45;;;6.65;;
47589;SDS011;33316;52.298;9.056;2022-11-15T03:51:59;11.10;;;6.75;;
47589;SDS011;33316;52.298;9.056;2022-11-15T03:54:27;10.73;;;6.53;;
47589;SDS011;33316;52.298;9.056;2022-11-15T03:56:54;9.40;;;5.63;;
47589;SDS011;33316;52.298;9.056;2022-11-15T03:59:21;9.98;;;6.25;;
47589;SDS011;33316;52.298;9.056;2022-11-15T04:01:48;8.43;;;5.70;;
47589;SDS011;33316;52.298;9.056;2022-11-15T04:04:15;9.00;;;5.78;;
47589;SDS011;33316;52.298;9.056;2022-11-15T04:06:43;8.38;;;5.47;;
47589;SDS011;33316;52.298;9.056;2022-11-15T04:09:10;7.57;;;5.63;;
47589;SDS011;33316;52.298;9.056;2022-11-15T04:11:36;8.30;;;5.75;;
47589;SDS011;33316;52.298;9.056;2022-11-15T04:14:03;7.93;;;5.72;;
47589;SDS011;33316;52.298;9.056;2022-11-15T04:16:30;8.38;;;5.40;;
47589;SDS011;33316;52.298;9.056;2022-11-15T04:18:57;7.70;;;5.75;;
47589;SDS011;33316;52.298;9.056;2022-11-15T04:21:42;9.52;;;5.40;;
47589;SDS011;33316;52.298;9.056;2022-11-15T04:24:32;6.70;;;4.97;;
47589;SDS011;33316;52.298;9.056;2022-11-15T04:26:59;9.93;;;5.65;;
47589;SDS011;33316;52.298;9.056;2022-11-15T04:29:26;8.20;;;5.15;;
47589;SDS011;33316;52.298;9.056;2022-11-15T04:32:01;7.97;;;4.97;;
47589;SDS011;33316;52.298;9.056;2022-11-15T04:34:29;9.27;;;5.00;;
47589;SDS011;33316;52.298;9.056;2022-11-15T04:36:57;7.45;;;4.95;;
47589;SDS011;33316;52.298;9.056;2022-11-15T04:39:39;10.32;;;5.72;;
47589;SDS011;33316;52.298;9.056;2022-11-15T04:42:06;8.18;;;5.65;;
47589;SDS011;33316;52.298;9.056;2022-11-15T04:44:34;6.68;;;5.53;;
47589;SDS011;33316;52.298;9.056;2022-11-15T04:47:01;8.80;;;5.50;;
47589;SDS011;33316;52.298;9.056;2022-11-15T04:49:28;7.55;;;4.80;;
47589;SDS011;33316;52.298;9.056;2022-11-15T04:51:56;7.53;;;4.72;;
47589;SDS011;33316;52.298;9.056;2022-11-15T04:54:23;9.23;;;5.35;;
47589;SDS011;33316;52.298;9.056;2022-11-15T04:56:50;8.70;;;5.20;;
47589;SDS011;33316;52.298;9.056;2022-11-15T04:59:17;9.82;;;6.18;;
47589;SDS011;33316;52.298;9.056;2022-11-15T05:01:43;9.88;;;6.03;;
47589;SDS011;33316;52.298;9.056;2022-11-15T05:04:10;7.32;;;5.10;;
47589;SDS011;33316;52.298;9.056;2022-11-15T05:06:46;6.35;;;4.53;;
47589;SDS011;33316;52.298;9.056;2022-11-15T05:09:15;7.00;;;4.75;;
47589;SDS011;33316;52.298;9.056;2022-11-15T05:11:42;8.13;;;4.90;;
47589;SDS011;33316;52.298;9.056;2022-11-15T05:14:08;6.68;;;4.82;;
47589;SDS011;33316;52.298;9.056;2022-11-15T05:16:35;7.40;;;4.82;;
47589;SDS011;33316;52.298;9.056;2022-11-15T05:19:02;7.00;;;4.70;;
47589;SDS011;33316;52.298;9.056;2022-11-15T05:21:29;6.75;;;4.38;;
47589;SDS011;33316;52.298;9.056;2022-11-15T05:23:57;6.97;;;4.63;;
47589;SDS011;33316;52.298;9.056;2022-11-15T05:26:25;6.38;;;4.85;;
47589;SDS011;33316;52.298;9.056;2022-11-15T05:28:53;5.47;;;4.05;;
47589;SDS011;33316;52.298;9.056;2022-11-15T05:31:20;7.35;;;4.95;;
47589;SDS011;33316;52.298;9.056;2022-11-15T05:33:48;7.43;;;4.75;;
47589;SDS011;33316;52.298;9.056;2022-11-15T05:36:16;7.05;;;4.78;;
47589;SDS011;33316;52.298;9.056;2022-11-15T05:38:47;5.88;;;4.10;;
47589;SDS011;33316;52.298;9.056;2022-11-15T05:41:14;6.22;;;4.60;;
47589;SDS011;33316;52.298;9.056;2022-11-15T05:43:45;8.05;;;4.95;;
47589;SDS011;33316;52.298;9.056;2022-11-15T05:46:13;5.47;;;4.20;;
47589;SDS011;33316;52.298;9.056;2022-11-15T05:48:40;6.72;;;4.78;;
47589;SDS011;33316;52.298;9.056;2022-11-15T05:51:11;5.47;;;4.38;;
47589;SDS011;33316;52.298;9.056;2022-11-15T05:53:40;7.32;;;4.22;;
47589;SDS011;33316;52.298;9.056;2022-11-15T05:56:07;5.75;;;4.35;;
47589;SDS011;33316;52.298;9.056;2022-11-15T05:58:36;7.88;;;4.30;;
47589;SDS011;33316;52.298;9.056;2022-11-15T06:01:04;5.70;;;4.18;;
47589;SDS011;33316;52.298;9.056;2022-11-15T06:03:31;6.28;;;4.18;;
47589;SDS011;33316;52.298;9.056;2022-11-15T06:05:58;4.95;;;3.75;;
47589;SDS011;33316;52.298;9.056;2022-11-15T06:08:25;6.68;;;3.78;;
47589;SDS011;33316;52.298;9.056;2022-11-15T06:10:52;5.65;;;3.67;;
47589;SDS011;33316;52.298;9.056;2022-11-15T06:13:18;5.60;;;3.88;;
47589;SDS011;33316;52.298;9.056;2022-11-15T06:15:45;5.13;;;3.95;;
47589;SDS011;33316;52.298;9.056;2022-11-15T06:18:13;5.90;;;4.15;;
47589;SDS011;33316;52.298;9.056;2022-11-15T06:20:40;6.00;;;4.13;;
47589;SDS011;33316;52.298;9.056;2022-11-15T06:23:06;5.82;;;3.95;;
47589;SDS011;33316;52.298;9.056;2022-11-15T06:25:33;9.27;;;4.07;;
47589;SDS011;33316;52.298;9.056;2022-11-15T06:28:00;7.28;;;4.20;;
47589;SDS011;33316;52.298;9.056;2022-11-15T06:30:27;7.63;;;4.05;;
47589;SDS011;33316;52.298;9.056;2022-11-15T06:32:58;6.60;;;4.30;;
47589;SDS011;33316;52.298;9.056;2022-11-15T06:35:28;6.28;;;3.85;;
47589;SDS011;33316;52.298;9.056;2022-11-15T06:37:55;7.03;;;4.15;;
47589;SDS011;33316;52.298;9.056;2022-11-15T06:40:22;7.00;;;4.40;;
47589;SDS011;33316;52.298;9.056;2022-11-15T06:42:49;5.80;;;4.32;;
47589;SDS011;33316;52.298;9.056;2022-11-15T06:45:15;7.30;;;4.45;;
47589;SDS011;33316;52.298;9.056;2022-11-15T06:47:45;5.85;;;4.40;;
47589;SDS011;33316;52.298;9.056;2022-11-15T06:50:13;5.20;;;4.05;;
47589;SDS011;33316;52.298;9.056;2022-11-15T06:52:41;6.78;;;4.03;;
47589;SDS011;33316;52.298;9.056;2022-11-15T06:55:08;4.40;;;3.92;;
47589;SDS011;33316;52.298;9.056;2022-11-15T06:57:35;5.40;;;4.00;;
47589;SDS011;33316;52.298;9.056;2022-11-15T07:00:02;4.53;;;3.53;;
47589;SDS011;33316;52.298;9.056;2022-11-15T07:02:29;5.85;;;3.85;;
47589;SDS011;33316;52.298;9.056;2022-11-15T07:04:56;5.82;;;3.78;;
47589;SDS011;33316;52.298;9.056;2022-11-15T07:07:23;5.03;;;3.90;;
47589;SDS011;33316;52.298;9.056;2022-11-15T07:09:51;5.53;;;3.85;;
47589;SDS011;33316;52.298;9.056;2022-11-15T07:12:18;5.30;;;3.65;;
47589;SDS011;33316;52.298;9.056;2022-11-15T07:14:45;4.50;;;3.70;;
47589;SDS011;33316;52.298;9.056;2022-11-15T07:17:11;4.55;;;3.40;;
47589;SDS011;33316;52.298;9.056;2022-11-15T07:19:38;4.82;;;3.58;;
47589;SDS011;33316;52.298;9.056;2022-11-15T07:22:05;5.43;;;3.78;;
47589;SDS011;33316;52.298;9.056;2022-11-15T07:24:31;6.00;;;3.45;;
47589;SDS011;33316;52.298;9.056;2022-11-15T07:26:59;5.68;;;4.10;;
47589;SDS011;33316;52.298;9.056;2022-11-15T07:29:26;4.00;;;3.05;;
47589;SDS011;33316;52.298;9.056;2022-11-15T07:31:53;3.55;;;3.00;;
47589;SDS011;33316;52.298;9.056;2022-11-15T07:34:20;5.00;;;3.38;;
47589;SDS011;33316;52.298;9.056;2022-11-15T07:36:47;4.68;;;3.42;;
47589;SDS011;33316;52.298;9.056;2022-11-15T07:39:14;5.38;;;3.63;;
47589;SDS011;33316;52.298;9.056;2022-11-15T07:41:40;3.97;;;3.17;;
47589;SDS011;33316;52.298;9.056;2022-11-15T07:44:09;4.90;;;3.03;;
47589;SDS011;33316;52.298;9.056;2022-11-15T07:46:36;5.18;;;3.17;;
47589;SDS011;33316;52.298;9.056;2022-11-15T07:49:03;4.57;;;2.83;;
47589;SDS011;33316;52.298;9.056;2022-11-15T07:51:30;4.70;;;3.30;;
47589;SDS011;33316;52.298;9.056;2022-11-15T07:53:56;4.85;;;3.13;;
47589;SDS011;33316;52.298;9.056;2022-11-15T07:56:23;4.05;;;2.88;;
47589;SDS011;33316;52.298;9.056;2022-11-15T07:58:50;5.88;;;2.78;;
47589;SDS011;33316;52.298;9.056;2022-11-15T08:01:18;4.78;;;3.60;;
47589;SDS011;33316;52.298;9.056;2022-11-15T08:03:45;4.28;;;2.85;;
47589;SDS011;33316;52.298;9.056;2022-11-15T08:06:12;4.28;;;2.72;;
47589;SDS011;33316;52.298;9.056;2022-11-15T08:08:38;4.97;;;2.70;;
47589;SDS011;33316;52.298;9.056;2022-11-15T08:11:05;3.70;;;2.05;;
47589;SDS011;33316;52.298;9.056;2022-11-15T08:13:32;4.28;;;2.63;;
47589;SDS011;33316;52.298;9.056;2022-11-15T08:15:59;3.13;;;2.33;;
47589;SDS011;33316;52.298;9.056;2022-11-15T08:18:27;4.32;;;2.85;;
47589;SDS011;33316;52.298;9.056;2022-11-15T08:20:57;4.20;;;2.60;;
47589;SDS011;33316;52.298;9.056;2022-11-15T08:23:25;4.20;;;2.80;;
47589;SDS011;33316;52.298;9.056;2022-11-15T08:25:52;5.30;;;2.55;;
47589;SDS011;33316;52.298;9.056;2022-11-15T08:28:24;5.03;;;2.92;;
47589;SDS011;33316;52.298;9.056;2022-11-15T08:30:51;4.20;;;2.63;;
47589;SDS011;33316;52.298;9.056;2022-11-15T08:33:18;4.72;;;2.95;;
47589;SDS011;33316;52.298;9.056;2022-11-15T08:35:46;5.35;;;2.63;;
47589;SDS011;33316;52.298;9.056;2022-11-15T08:38:13;3.33;;;2.28;;
47589;SDS011;33316;52.298;9.056;2022-11-15T08:40:40;4.40;;;2.95;;
47589;SDS011;33316;52.298;9.056;2022-11-15T08:43:07;4.20;;;3.08;;
47589;SDS011;33316;52.298;9.056;2022-11-15T08:45:34;4.50;;;2.90;;
47589;SDS011;33316;52.298;9.056;2022-11-15T08:48:01;4.10;;;2.90;;
47589;SDS011;33316;52.298;9.056;2022-11-15T08:50:29;4.60;;;2.60;;
47589;SDS011;33316;52.298;9.056;2022-11-15T08:52:57;3.83;;;1.88;;
47589;SDS011;33316;52.298;9.056;2022-11-15T08:55:29;3.10;;;2.33;;
47589;SDS011;33316;52.298;9.056;2022-11-15T08:57:56;4.25;;;2.55;;
47589;SDS011;33316;52.298;9.056;2022-11-15T09:00:23;4.22;;;2.38;;
47589;SDS011;33316;52.298;9.056;2022-11-15T09:02:50;3.95;;;2.47;;
47589;SDS011;33316;52.298;9.056;2022-11-15T09:05:17;4.22;;;2.33;;
47589;SDS011;33316;52.298;9.056;2022-11-15T09:07:43;4.40;;;2.65;;
47589;SDS011;33316;52.298;9.056;2022-11-15T09:10:11;4.43;;;2.75;;
47589;SDS011;33316;52.298;9.056;2022-11-15T09:12:38;3.58;;;2.30;;
47589;SDS011;33316;52.298;9.056;2022-11-15T09:15:05;4.68;;;2.38;;
47589;SDS011;33316;52.298;9.056;2022-11-15T09:17:33;3.80;;;2.45;;
47589;SDS011;33316;52.298;9.056;2022-11-15T09:20:00;3.70;;;2.30;;
47589;SDS011;33316;52.298;9.056;2022-11-15T09:22:27;2.38;;;1.85;;
47589;SDS011;33316;52.298;9.056;2022-11-15T09:24:53;3.97;;;2.50;;
47589;SDS011;33316;52.298;9.056;2022-11-15T09:27:21;3.95;;;2.30;;
47589;SDS011;33316;52.298;9.056;2022-11-15T09:29:48;2.75;;;1.90;;
47589;SDS011;33316;52.298;9.056;2022-11-15T09:32:15;2.63;;;1.90;;
47589;SDS011;33316;52.298;9.056;2022-11-15T09:34:41;3.08;;;2.00;;
47589;SDS011;33316;52.298;9.056;2022-11-15T09:37:08;4.57;;;1.80;;
47589;SDS011;33316;52.298;9.056;2022-11-15T09:39:35;2.60;;;1.65;;
47589;SDS011;33316;52.298;9.056;2022-11-15T09:42:08;3.17;;;1.85;;
47589;SDS011;33316;52.298;9.056;2022-11-15T09:44:59;2.55;;;1.58;;
47589;SDS011;33316;52.298;9.056;2022-11-15T09:47:44;1.83;;;1.42;;
47589;SDS011;33316;52.298;9.056;2022-11-15T09:50:34;3.20;;;2.17;;
47589;SDS011;33316;52.298;9.056;2022-11-15T09:53:04;2.28;;;1.60;;
47589;SDS011;33316;52.298;9.056;2022-11-15T09:55:35;2.17;;;1.63;;
47589;SDS011;33316;52.298;9.056;2022-11-15T09:58:10;3.08;;;1.80;;
47589;SDS011;33316;52.298;9.056;2022-11-15T10:00:50;2.22;;;1.77;;
47589;SDS011;33316;52.298;9.056;2022-11-15T10:03:19;2.65;;;1.63;;
47589;SDS011;33316;52.298;9.056;2022-11-15T10:05:53;2.88;;;1.80;;
47589;SDS011;33316;52.298;9.056;2022-11-15T10:08:25;3.97;;;1.77;;
47589;SDS011;33316;52.298;9.056;2022-11-15T10:11:01;4.25;;;1.83;;
47589;SDS011;33316;52.298;9.056;2022-11-15T10:13:30;2.13;;;1.50;;
47589;SDS011;33316;52.298;9.056;2022-11-15T10:16:02;4.30;;;1.67;;
47589;SDS011;33316;52.298;9.056;2022-11-15T10:18:40;2.67;;;1.50;;
47589;SDS011;33316;52.298;9.056;2022-11-15T10:21:17;2.35;;;1.50;;
47589;SDS011;33316;52.298;9.056;2022-11-15T10:23:45;2.53;;;1.80;;
47589;SDS011;33316;52.298;9.056;2022-11-15T10:26:13;3.58;;;1.98;;
47589;SDS011;33316;52.298;9.056;2022-11-15T10:28:42;4.10;;;2.00;;
47589;SDS011;33316;52.298;9.056;2022-11-15T10:31:20;3.40;;;1.90;;
47589;SDS011;33316;52.298;9.056;2022-11-15T10:33:48;2.72;;;1.63;;
47589;SDS011;33316;52.298;9.056;2022-11-15T10:36:22;2.17;;;1.30;;
47589;SDS011;33316;52.298;9.056;2022-11-15T10:38:57;3.05;;;1.58;;
47589;SDS011;33316;52.298;9.056;2022-11-15T10:41:31;2.25;;;1.58;;
47589;SDS011;33316;52.298;9.056;2022-11-15T10:44:03;3.25;;;1.20;;
47589;SDS011;33316;52.298;9.056;2022-11-15T10:46:40;2.33;;;1.48;;
47589;SDS011;33316;52.298;9.056;2022-11-15T10:49:12;1.98;;;1.20;;
47589;SDS011;33316;52.298;9.056;2022-11-15T10:51:42;1.92;;;1.02;;
47589;SDS011;33316;52.298;9.056;2022-11-15T10:54:12;1.92;;;1.15;;
47589;SDS011;33316;52.298;9.056;2022-11-15T10:56:42;1.50;;;1.00;;
47589;SDS011;33316;52.298;9.056;2022-11-15T10:59:14;1.20;;;0.93;;
47589;SDS011;33316;52.298;9.056;2022-11-15T11:01:47;2.03;;;1.13;;
47589;SDS011;33316;52.298;9.056;2022-11-15T11:04:14;2.03;;;1.10;;
47589;SDS011;33316;52.298;9.056;2022-11-15T11:06:48;1.98;;;1.20;;
47589;SDS011;33316;52.298;9.056;2022-11-15T11:09:23;1.67;;;1.20;;
47589;SDS011;33316;52.298;9.056;2022-11-15T11:11:58;2.85;;;1.08;;
47589;SDS011;33316;52.298;9.056;2022-11-15T11:14:26;1.20;;;0.80;;
47589;SDS011;33316;52.298;9.056;2022-11-15T11:16:59;1.33;;;0.93;;
47589;SDS011;33316;52.298;9.056;2022-11-15T11:19:43;1.85;;;0.98;;
47589;SDS011;33316;52.298;9.056;2022-11-15T11:22:20;1.65;;;0.82;;
47589;SDS011;33316;52.298;9.056;2022-11-15T11:24:55;2.17;;;1.10;;
47589;SDS011;33316;52.298;9.056;2022-11-15T11:27:33;1.55;;;0.80;;
47589;SDS011;33316;52.298;9.056;2022-11-15T11:30:09;4.00;;;1.00;;
47589;SDS011;33316;52.298;9.056;2022-11-15T11:32:43;1.75;;;0.93;;
47589;SDS011;33316;52.298;9.056;2022-11-15T11:35:22;1.33;;;0.95;;
47589;SDS011;33316;52.298;9.056;2022-11-15T11:37:55;1.50;;;0.85;;
47589;SDS011;33316;52.298;9.056;2022-11-15T11:40:30;1.80;;;0.90;;
47589;SDS011;33316;52.298;9.056;2022-11-15T11:43:01;1.48;;;0.90;;
47589;SDS011;33316;52.298;9.056;2022-11-15T11:45:43;1.77;;;0.70;;
47589;SDS011;33316;52.298;9.056;2022-11-15T11:48:29;1.00;;;0.73;;
47589;SDS011;33316;52.298;9.056;2022-11-15T11:51:08;1.23;;;0.93;;
47589;SDS011;33316;52.298;9.056;2022-11-15T11:53:42;1.58;;;0.82;;
47589;SDS011;33316;52.298;9.056;2022-11-15T11:56:17;2.33;;;0.73;;
47589;SDS011;33316;52.298;9.056;2022-11-15T11:58:50;1.95;;;1.00;;
47589;SDS011;33316;52.298;9.056;2022-11-15T12:01:21;1.70;;;0.98;;
47589;SDS011;33316;52.298;9.056;2022-11-15T12:03:52;3.58;;;0.93;;
47589;SDS011;33316;52.298;9.056;2022-11-15T12:06:27;2.28;;;1.10;;
47589;SDS011;33316;52.298;9.056;2022-11-15T12:08:59;1.92;;;1.17;;
47589;SDS011;33316;52.298;9.056;2022-11-15T12:11:30;1.55;;;0.93;;
47589;SDS011;33316;52.298;9.056;2022-11-15T12:14:05;1.65;;;1.05;;
47589;SDS011;33316;52.298;9.056;2022-11-15T12:16:38;2.35;;;1.20;;
47589;SDS011;33316;52.298;9.056;2022-11-15T12:19:09;1.45;;;1.05;;
47589;SDS011;33316;52.298;9.056;2022-11-15T12:21:39;1.95;;;1.13;;
47589;SDS011;33316;52.298;9.056;2022-11-15T12:24:13;1.73;;;1.05;;
47589;SDS011;33316;52.298;9.056;2022-11-15T12:26:46;1.63;;;1.02;;
47589;SDS011;33316;52.298;9.056;2022-11-15T12:29:19;1.83;;;1.10;;
47589;SDS011;33316;52.298;9.056;2022-11-15T12:31:50;2.17;;;1.00;;
47589;SDS011;33316;52.298;9.056;2022-11-15T12:40:26;2.10;;;1.10;;
47589;SDS011;33316;52.298;9.056;2022-11-15T12:45:59;2.05;;;1.33;;
47589;SDS011;33316;52.298;9.056;2022-11-15T12:48:46;1.50;;;1.00;;
47589;SDS011;33316;52.298;9.056;2022-11-15T12:51:15;2.67;;;1.40;;
47589;SDS011;33316;52.298;9.056;2022-11-15T12:53:44;1.80;;;1.30;;
47589;SDS011;33316;52.298;9.056;2022-11-15T12:56:18;1.92;;;1.30;;
47589;SDS011;33316;52.298;9.056;2022-11-15T12:58:48;2.63;;;1.08;;
47589;SDS011;33316;52.298;9.056;2022-11-15T13:04:23;2.45;;;1.00;;
47589;SDS011;33316;52.298;9.056;2022-11-15T13:06:53;1.83;;;1.05;;
47589;SDS011;33316;52.298;9.056;2022-11-15T13:18:25;0.98;;;0.73;;
47589;SDS011;33316;52.298;9.056;2022-11-15T13:20:58;1.25;;;0.73;;
47589;SDS011;33316;52.298;9.056;2022-11-15T13:23:25;1.52;;;0.80;;
47589;SDS011;33316;52.298;9.056;2022-11-15T13:26:06;1.45;;;1.13;;
47589;SDS011;33316;52.298;9.056;2022-11-15T13:28:39;1.65;;;1.20;;
47589;SDS011;33316;52.298;9.056;2022-11-15T13:31:23;1.83;;;1.00;;
47589;SDS011;33316;52.298;9.056;2022-11-15T13:33:53;1.38;;;0.65;;
47589;SDS011;33316;52.298;9.056;2022-11-15T13:36:23;1.83;;;0.98;;
47589;SDS011;33316;52.298;9.056;2022-11-15T13:38:56;2.85;;;1.30;;
47589;SDS011;33316;52.298;9.056;2022-11-15T13:41:27;3.05;;;1.10;;
47589;SDS011;33316;52.298;9.056;2022-11-15T13:43:55;1.53;;;1.03;;
47589;SDS011;33316;52.298;9.056;2022-11-15T13:46:23;1.63;;;1.08;;
47589;SDS011;33316;52.298;9.056;2022-11-15T13:48:53;1.90;;;1.08;;
47589;SDS011;33316;52.298;9.056;2022-11-15T13:51:23;1.90;;;1.08;;
47589;SDS011;33316;52.298;9.056;2022-11-15T13:53:54;1.98;;;1.08;;
47589;SDS011;33316;52.298;9.056;2022-11-15T13:56:24;3.90;;;1.20;;
47589;SDS011;33316;52.298;9.056;2022-11-15T13:58:53;2.22;;;1.27;;
47589;SDS011;33316;52.298;9.056;2022-11-15T14:01:20;1.88;;;1.15;;
47589;SDS011;33316;52.298;9.056;2022-11-15T14:03:53;1.80;;;1.23;;
47589;SDS011;33316;52.298;9.056;2022-11-15T14:06:23;3.33;;;1.15;;
47589;SDS011;33316;52.298;9.056;2022-11-15T14:09:03;5.40;;;1.30;;
47589;SDS011;33316;52.298;9.056;2022-11-15T14:11:50;2.53;;;1.45;;
47589;SDS011;33316;52.298;9.056;2022-11-15T14:14:19;3.55;;;1.30;;
47589;SDS011;33316;52.298;9.056;2022-11-15T14:16:48;1.95;;;1.10;;
47589;SDS011;33316;52.298;9.056;2022-11-15T14:19:34;1.60;;;1.00;;
47589;SDS011;33316;52.298;9.056;2022-11-15T14:22:15;1.80;;;0.95;;
47589;SDS011;33316;52.298;9.056;2022-11-15T14:24:46;1.30;;;0.90;;
47589;SDS011;33316;52.298;9.056;2022-11-15T14:27:31;3.13;;;1.15;;
47589;SDS011;33316;52.298;9.056;2022-11-15T14:29:59;1.38;;;0.90;;
47589;SDS011;33316;52.298;9.056;2022-11-15T14:32:27;1.27;;;0.90;;
47589;SDS011;33316;52.298;9.056;2022-11-15T14:34:56;1.27;;;1.05;;
47589;SDS011;33316;52.298;9.056;2022-11-15T14:37:25;2.00;;;1.05;;
47589;SDS011;33316;52.298;9.056;2022-11-15T14:39:53;1.80;;;0.80;;
47589;SDS011;33316;52.298;9.056;2022-11-15T14:42:21;1.50;;;0.88;;
47589;SDS011;33316;52.298;9.056;2022-11-15T14:44:51;1.40;;;0.90;;
47589;SDS011;33316;52.298;9.056;2022-11-15T14:47:18;2.25;;;1.20;;
47589;SDS011;33316;52.298;9.056;2022-11-15T14:49:45;1.98;;;1.05;;
47589;SDS011;33316;52.298;9.056;2022-11-15T14:52:22;2.08;;;1.20;;
47589;SDS011;33316;52.298;9.056;2022-11-15T14:54:52;3.88;;;1.88;;
47589;SDS011;33316;52.298;9.056;2022-11-15T14:57:19;2.13;;;1.42;;
47589;SDS011;33316;52.298;9.056;2022-11-15T14:59:46;1.63;;;1.25;;
47589;SDS011;33316;52.298;9.056;2022-11-15T15:02:16;1.73;;;1.10;;
47589;SDS011;33316;52.298;9.056;2022-11-15T15:04:45;1.65;;;0.80;;
47589;SDS011;33316;52.298;9.056;2022-11-15T15:07:12;1.73;;;1.00;;
47589;SDS011;33316;52.298;9.056;2022-11-15T15:09:39;1.50;;;1.02;;
47589;SDS011;33316;52.298;9.056;2022-11-15T15:12:10;1.30;;;1.05;;
47589;SDS011;33316;52.298;9.056;2022-11-15T15:14:41;1.70;;;1.00;;
47589;SDS011;33316;52.298;9.056;2022-11-15T15:17:07;2.40;;;1.30;;
47589;SDS011;33316;52.298;9.056;2022-11-15T15:19:36;4.10;;;1.33;;
47589;SDS011;33316;52.298;9.056;2022-11-15T15:22:03;2.75;;;1.52;;
47589;SDS011;33316;52.298;9.056;2022-11-15T15:24:30;1.88;;;1.23;;
47589;SDS011;33316;52.298;9.056;2022-11-15T15:26:57;2.08;;;1.60;;
47589;SDS011;33316;52.298;9.056;2022-11-15T15:29:24;1.40;;;1.30;;
47589;SDS011;33316;52.298;9.056;2022-11-15T15:31:51;1.58;;;1.15;;
47589;SDS011;33316;52.298;9.056;2022-11-15T15:34:17;3.05;;;1.42;;
47589;SDS011;33316;52.298;9.056;2022-11-15T15:36:46;3.35;;;1.60;;